createdAt,value
2019-05-30T00:01:21.413Z,72.06
2019-05-30T00:03:51.920Z,73.54
2019-05-30T00:06:25.544Z,74.18
2019-05-30T00:08:54.779Z,75.16
2019-05-30T00:11:26.408Z,72.85
2019-05-30T00:13:56.687Z,70.57
2019-05-30T00:16:29.598Z,70.56
2019-05-30T00:18:58.803Z,71.36
2019-05-30T00:21:28.030Z,70.73
2019-05-30T00:24:04.316Z,68.97
2019-05-30T00:26:32.752Z,70.24
2019-05-30T00:29:02.611Z,72.57
2019-05-30T00:31:35.656Z,74.43
2019-05-30T00:34:07.997Z,72.90
2019-05-30T00:36:38.844Z,74.29
2019-05-30T00:39:08.121Z,73.59
2019-05-30T00:41:37.772Z,74.51
2019-05-30T00:44:08.232Z,75.29
2019-05-30T00:46:39.337Z,74.77
2019-05-30T00:49:11.197Z,75.35
2019-05-30T00:51:40.343Z,74.98
2019-05-30T00:54:09.495Z,74.32
2019-05-30T00:56:39.725Z,74.90
2019-05-30T00:59:08.838Z,74.16
2019-05-30T01:01:42.645Z,72.43
2019-05-30T01:04:12.127Z,70.20
2019-05-30T01:06:44.072Z,69.10
2019-05-30T01:09:20.741Z,69.32
2019-05-30T01:11:49.924Z,70.42
2019-05-30T01:14:20.156Z,70.33
2019-05-30T01:16:49.261Z,69.79
2019-05-30T01:19:27.935Z,70.72
2019-05-30T01:21:57.191Z,72.03
2019-05-30T01:24:27.576Z,72.91
2019-05-30T01:26:57.156Z,73.47
2019-05-30T01:29:26.346Z,73.42
2019-05-30T01:31:57.428Z,74.05
2019-05-30T01:34:26.703Z,74.37
2019-05-30T01:36:57.572Z,76.24
2019-05-30T01:39:26.775Z,77.63
2019-05-30T01:41:57.759Z,79.18
2019-05-30T01:44:30.664Z,80.20
2019-05-30T01:47:00.154Z,80.11
2019-05-30T01:49:29.513Z,79.55
2019-05-30T01:52:04.763Z,80.37
2019-05-30T01:54:33.947Z,80.12
2019-05-30T01:57:05.282Z,80.10
2019-05-30T01:59:34.438Z,79.72
2019-05-30T02:02:05.024Z,79.36
2019-05-30T02:04:38.517Z,79.58
2019-05-30T02:07:07.669Z,79.77
2019-05-30T02:09:39.658Z,79.63
2019-05-30T02:12:09.633Z,80.42
2019-05-30T02:14:42.404Z,80.86
2019-05-30T02:17:11.535Z,80.11
2019-05-30T02:19:40.687Z,79.51
2019-05-30T02:22:11.113Z,80.43
2019-05-30T02:24:40.612Z,80.16
2019-05-30T02:27:10.345Z,79.92
2019-05-30T02:29:44.251Z,79.83
2019-05-30T02:32:13.581Z,80.20
2019-05-30T02:34:45.607Z,80.23
2019-05-30T02:37:20.129Z,79.56
2019-05-30T02:39:49.211Z,80.24
2019-05-30T02:42:18.343Z,79.51
2019-05-30T02:44:47.489Z,80.15
2019-05-30T02:47:17.023Z,80.67
2019-05-30T02:49:52.147Z,79.82
2019-05-30T02:52:21.287Z,79.53
2019-05-30T02:54:51.898Z,78.44
2019-05-30T02:57:21.135Z,79.11
2019-05-30T02:59:56.410Z,79.15
2019-05-30T03:02:25.535Z,78.41
2019-05-30T03:04:54.735Z,76.39
2019-05-30T03:07:25.844Z,75.35
2019-05-30T03:09:56.128Z,76.07
2019-05-30T03:12:32.296Z,75.25
2019-05-30T03:15:02.503Z,76.80
2019-05-30T03:17:37.804Z,77.71
2019-05-30T03:20:21.490Z,78.64
2019-05-30T03:22:42.105Z,78.76
2019-05-30T03:25:15.598Z,79.38
2019-05-30T03:27:42.440Z,80.04
2019-05-30T03:30:25.703Z,80.05
2019-05-30T03:33:05.244Z,79.81
2019-05-30T03:35:27.718Z,79.69
2019-05-30T03:37:51.421Z,79.33
2019-05-30T03:40:22.819Z,80.72
2019-05-30T03:42:52.036Z,79.30
2019-05-30T03:45:29.079Z,78.23
2019-05-30T03:48:01.425Z,79.25
2019-05-30T03:50:32.182Z,78.89
2019-05-30T03:53:04.607Z,76.95
2019-05-30T03:55:37.333Z,77.11
2019-05-30T03:58:14.346Z,76.05
2019-05-30T04:00:51.935Z,75.13
2019-05-30T04:03:43.978Z,74.02
2019-05-30T04:06:20.783Z,71.99
2019-05-30T04:08:50.990Z,69.46
2019-05-30T04:11:23.534Z,70.99
2019-05-30T04:13:55.419Z,70.20
2019-05-30T04:16:24.654Z,69.36
2019-05-30T04:18:55.141Z,69.51
2019-05-30T04:21:33.490Z,68.89
2019-05-30T04:24:04.921Z,70.21
2019-05-30T04:26:35.075Z,70.66
2019-05-30T04:29:07.893Z,71.27
2019-05-30T04:31:38.570Z,72.56
2019-05-30T04:34:08.358Z,70.66
2019-05-30T04:36:43.754Z,70.22
2019-05-30T04:39:13.073Z,70.54
2019-05-30T04:41:42.684Z,70.81
2019-05-30T04:44:16.385Z,70.18
2019-05-30T04:46:48.839Z,69.40
2019-05-30T04:49:21.619Z,68.63
2019-05-30T04:51:53.732Z,71.20
2019-05-30T04:54:25.669Z,69.28
2019-05-30T04:56:58.414Z,69.77
2019-05-30T04:59:28.866Z,68.62
2019-05-30T05:02:00.542Z,65.65
2019-05-30T05:04:32.972Z,65.86
2019-05-30T05:07:05.190Z,64.69
2019-05-30T05:09:36.419Z,65.95
2019-05-30T05:12:20.763Z,67.53
2019-05-30T05:14:49.871Z,68.09
2019-05-30T05:17:20.897Z,65.40
2019-05-30T05:19:51.871Z,64.34
2019-05-30T05:22:21.207Z,64.31
2019-05-30T05:24:58.877Z,68.06
2019-05-30T05:27:28.106Z,68.20
2019-05-30T05:29:57.228Z,68.79
2019-05-30T05:32:28.061Z,68.97
2019-05-30T05:35:00.234Z,69.27
2019-05-30T05:37:29.373Z,70.86
2019-05-30T05:39:58.822Z,69.00
2019-05-30T05:42:30.173Z,68.62
2019-05-30T05:44:59.758Z,67.62
2019-05-30T05:47:32.941Z,68.59
2019-05-30T05:50:02.192Z,70.15
2019-05-30T05:52:33.631Z,69.00
2019-05-30T05:55:05.855Z,70.07
2019-05-30T05:57:35.288Z,70.48
2019-05-30T06:00:05.425Z,71.43
2019-05-30T06:02:41.009Z,70.82
2019-05-30T06:05:11.599Z,68.67
2019-05-30T06:07:47.654Z,69.56
2019-05-30T06:10:19.627Z,71.33
2019-05-30T06:12:48.908Z,69.87
2019-05-30T06:15:20.808Z,68.91
2019-05-30T06:17:52.300Z,70.30
2019-05-30T06:20:23.311Z,68.49
2019-05-30T06:22:52.784Z,70.33
2019-05-30T06:25:29.834Z,68.69
2019-05-30T06:27:54.595Z,68.78
2019-05-30T06:30:26.388Z,66.94
2019-05-30T06:32:57.669Z,67.14
2019-05-30T06:35:27.482Z,67.26
2019-05-30T06:37:56.745Z,67.64
2019-05-30T06:40:25.916Z,67.86
2019-05-30T06:42:56.125Z,68.46
2019-05-30T06:45:26.892Z,69.02
2019-05-30T06:47:56.127Z,68.31
2019-05-30T06:50:26.837Z,66.21
2019-05-30T06:53:01.027Z,66.21
2019-05-30T06:55:33.539Z,65.99
2019-05-30T06:58:03.801Z,66.03
2019-05-30T07:00:33.085Z,64.33
2019-05-30T07:03:05.511Z,64.54
2019-05-30T07:05:39.661Z,65.16
2019-05-30T07:08:17.013Z,66.20
2019-05-30T07:10:46.681Z,65.61
2019-05-30T07:13:15.864Z,62.97
2019-05-30T07:15:45.263Z,63.28
2019-05-30T07:18:18.922Z,64.00
2019-05-30T07:20:50.604Z,62.64
2019-05-30T07:23:24.243Z,62.95
2019-05-30T07:25:54.706Z,60.42
2019-05-30T07:28:27.893Z,60.97
2019-05-30T07:30:57.393Z,60.29
2019-05-30T07:33:28.410Z,60.52
2019-05-30T07:35:58.712Z,58.51
2019-05-30T07:38:30.507Z,60.55
2019-05-30T07:41:00.338Z,58.14
2019-05-30T07:43:30.733Z,57.49
2019-05-30T07:46:05.681Z,54.47
2019-05-30T07:48:34.773Z,52.69
2019-05-30T07:51:04.784Z,53.01
2019-05-30T07:53:35.666Z,52.06
2019-05-30T07:56:05.508Z,53.60
2019-05-30T07:58:35.358Z,52.17
2019-05-30T08:01:10.181Z,51.53
2019-05-30T08:03:40.662Z,50.88
2019-05-30T08:06:15.081Z,52.37
2019-05-30T08:08:46.791Z,52.42
2019-05-30T08:11:21.133Z,55.10
2019-05-30T08:13:51.348Z,51.03
2019-05-30T08:16:20.960Z,50.41
2019-05-30T08:18:56.951Z,48.88
2019-05-30T08:21:26.119Z,50.40
2019-05-30T08:24:01.338Z,50.10
2019-05-30T08:26:30.543Z,51.51
2019-05-30T08:29:01.026Z,50.22
2019-05-30T08:31:30.469Z,48.07
2019-05-30T08:33:59.691Z,49.10
2019-05-30T08:36:30.871Z,45.68
2019-05-30T08:39:01.712Z,44.41
2019-05-30T08:41:31.291Z,45.25
2019-05-30T08:44:02.939Z,46.19
2019-05-30T08:46:32.381Z,46.30
2019-05-30T08:49:04.234Z,45.74
2019-05-30T08:51:34.146Z,43.30
2019-05-30T08:54:04.853Z,42.62
2019-05-30T08:56:37.047Z,43.21
2019-05-30T08:59:06.439Z,43.61
2019-05-30T09:01:35.789Z,43.14
2019-05-30T09:04:05.491Z,41.38
2019-05-30T09:06:35.756Z,40.50
2019-05-30T09:09:06.813Z,42.53
2019-05-30T09:11:40.631Z,41.97
2019-05-30T09:14:11.428Z,40.94
2019-05-30T09:16:46.173Z,40.54
2019-05-30T09:19:15.767Z,38.71
2019-05-30T09:21:45.521Z,42.86
2019-05-30T09:24:14.948Z,41.83
2019-05-30T09:26:49.029Z,40.26
2019-05-30T09:29:16.934Z,41.00
2019-05-30T09:31:46.721Z,41.86
2019-05-30T09:34:15.932Z,41.25
2019-05-30T09:36:45.223Z,37.21
2019-05-30T09:39:14.372Z,38.89
2019-05-30T09:41:43.888Z,39.40
2019-05-30T09:44:13.161Z,39.34
2019-05-30T09:46:46.891Z,37.01
2019-05-30T09:49:18.368Z,37.85
2019-05-30T09:51:53.237Z,37.79
2019-05-30T09:54:23.007Z,37.49
2019-05-30T09:56:57.344Z,36.34
2019-05-30T09:59:30.157Z,36.53
2019-05-30T10:02:01.837Z,37.38
2019-05-30T10:04:32.777Z,36.40
2019-05-30T10:07:01.955Z,37.74
2019-05-30T10:09:35.393Z,37.69
2019-05-30T10:12:07.989Z,38.58
2019-05-30T10:14:38.144Z,38.19
2019-05-30T10:17:12.121Z,38.10
2019-05-30T10:19:41.310Z,37.84
2019-05-30T10:22:11.752Z,38.45
2019-05-30T10:24:51.337Z,38.01
2019-05-30T10:27:20.451Z,36.65
2019-05-30T10:29:49.574Z,35.90
2019-05-30T10:32:20.059Z,36.78
2019-05-30T10:34:49.627Z,35.92
2019-05-30T10:37:20.132Z,36.96
2019-05-30T10:39:51.117Z,36.45
2019-05-30T10:42:20.795Z,35.81
2019-05-30T10:44:51.248Z,36.77
2019-05-30T10:47:23.644Z,39.15
2019-05-30T10:49:59.368Z,40.12
2019-05-30T10:52:28.535Z,35.65
2019-05-30T10:55:00.574Z,35.41
2019-05-30T10:57:35.299Z,35.50
2019-05-30T11:00:05.475Z,35.82
2019-05-30T11:02:35.611Z,38.46
2019-05-30T11:05:11.986Z,37.25
2019-05-30T11:08:06.269Z,37.01
2019-05-30T11:10:39.438Z,39.83
2019-05-30T11:13:10.980Z,40.88
2019-05-30T11:15:40.795Z,41.09
2019-05-30T11:18:10.199Z,39.98
2019-05-30T11:20:44.351Z,40.32
2019-05-30T11:23:15.820Z,39.80
2019-05-30T11:25:46.314Z,38.67
2019-05-30T11:28:15.402Z,38.95
2019-05-30T11:30:48.555Z,39.19
2019-05-30T11:33:17.935Z,38.88
2019-05-30T11:35:47.160Z,36.95
2019-05-30T11:38:18.710Z,37.01
2019-05-30T11:40:51.589Z,40.16
2019-05-30T11:43:20.751Z,38.92
2019-05-30T11:45:51.661Z,39.36
2019-05-30T11:48:25.370Z,40.83
2019-05-30T11:51:00.863Z,40.09
2019-05-30T11:53:30.029Z,41.58
2019-05-30T11:56:02.963Z,41.95
2019-05-30T11:58:39.327Z,42.93
2019-05-30T12:01:08.642Z,44.17
2019-05-30T12:03:37.989Z,42.86
2019-05-30T12:06:09.849Z,43.53
2019-05-30T12:08:38.999Z,43.35
2019-05-30T12:11:08.328Z,42.51
2019-05-30T12:13:41.357Z,42.54
2019-05-30T12:16:11.611Z,43.01
2019-05-30T12:18:43.285Z,41.66
2019-05-30T12:21:12.682Z,39.73
2019-05-30T12:23:44.462Z,39.15
2019-05-30T12:26:13.617Z,38.98
2019-05-30T12:28:43.740Z,38.64
2019-05-30T12:31:14.150Z,38.03
2019-05-30T12:33:47.924Z,38.56
2019-05-30T12:36:17.237Z,39.59
2019-05-30T12:38:46.431Z,36.81
2019-05-30T12:41:21.513Z,35.96
2019-05-30T12:43:50.943Z,36.39
2019-05-30T12:46:21.883Z,35.87
2019-05-30T12:48:51.096Z,35.13
2019-05-30T12:51:20.255Z,35.05
2019-05-30T12:53:50.605Z,35.85
2019-05-30T12:56:20.196Z,36.84
2019-05-30T12:58:49.695Z,37.92
2019-05-30T13:01:21.016Z,38.91
2019-05-30T13:03:50.307Z,37.17
2019-05-30T13:06:19.449Z,38.86
2019-05-30T13:08:49.642Z,38.55
2019-05-30T13:11:19.903Z,38.29
2019-05-30T13:13:49.575Z,38.36
2019-05-30T13:16:20.461Z,39.23
2019-05-30T13:18:49.673Z,38.83
2019-05-30T13:21:19.405Z,38.87
2019-05-30T13:23:51.854Z,38.15
2019-05-30T13:26:25.193Z,37.26
2019-05-30T13:29:00.209Z,35.77
2019-05-30T13:31:32.125Z,34.28
2019-05-30T13:34:01.263Z,34.71
2019-05-30T13:36:31.517Z,37.44
2019-05-30T13:39:03.161Z,38.79
2019-05-30T13:41:36.256Z,38.13
2019-05-30T13:44:09.436Z,38.72
2019-05-30T13:46:38.403Z,38.44
2019-05-30T13:49:09.351Z,40.91
2019-05-30T13:51:38.547Z,41.15
2019-05-30T13:54:12.447Z,42.60
2019-05-30T13:56:45.345Z,42.28
2019-05-30T13:59:19.685Z,43.01
2019-05-30T14:01:50.701Z,43.07
2019-05-30T14:04:19.844Z,42.39
2019-05-30T14:06:52.988Z,41.99
2019-05-30T14:09:23.201Z,42.89
2019-05-30T14:11:56.717Z,42.43
2019-05-30T14:14:26.288Z,42.02
2019-05-30T14:16:55.424Z,42.22
2019-05-30T14:19:25.682Z,42.01
2019-05-30T14:21:55.005Z,41.88
2019-05-30T14:24:27.793Z,41.25
2019-05-30T14:26:57.039Z,40.87
2019-05-30T14:29:36.391Z,42.00
2019-05-30T14:32:05.820Z,41.64
2019-05-30T14:34:35.519Z,40.34
2019-05-30T14:37:04.942Z,41.36
2019-05-30T14:39:35.355Z,41.12
2019-05-30T14:42:07.604Z,41.70
2019-05-30T14:44:36.817Z,41.26
2019-05-30T14:47:06.433Z,41.70
2019-05-30T14:49:38.884Z,41.33
2019-05-30T14:52:08.814Z,40.47
2019-05-30T14:54:40.403Z,39.95
2019-05-30T14:57:09.658Z,40.47
2019-05-30T14:59:40.523Z,40.88
2019-05-30T15:02:13.333Z,40.73
2019-05-30T15:04:42.636Z,40.77
2019-05-30T15:07:11.807Z,40.07
2019-05-30T15:09:42.561Z,40.22
2019-05-30T15:12:14.632Z,39.52
2019-05-30T15:14:44.240Z,37.93
2019-05-30T15:17:14.298Z,37.25
2019-05-30T15:19:43.588Z,37.56
2019-05-30T15:22:16.376Z,38.24
2019-05-30T15:24:50.984Z,37.06
2019-05-30T15:27:20.974Z,36.34
2019-05-30T15:29:51.257Z,37.89
2019-05-30T15:32:23.988Z,40.58
2019-05-30T15:34:55.023Z,41.18
2019-05-30T15:37:25.511Z,37.77
2019-05-30T15:39:54.633Z,36.43
2019-05-30T15:42:25.388Z,36.64
2019-05-30T15:44:57.286Z,37.01
2019-05-30T15:47:26.534Z,36.12
2019-05-30T15:49:57.113Z,35.57
2019-05-30T15:52:26.615Z,35.43
2019-05-30T15:54:55.863Z,36.55
2019-05-30T15:57:29.470Z,36.17
2019-05-30T15:59:58.830Z,36.10
2019-05-30T16:02:27.991Z,36.38
2019-05-30T16:04:59.018Z,35.93
2019-05-30T16:07:29.543Z,36.01
2019-05-30T16:10:03.133Z,36.92
2019-05-30T16:12:40.081Z,36.98
2019-05-30T16:15:11.768Z,37.70
2019-05-30T16:17:41.287Z,37.76
2019-05-30T16:20:13.861Z,38.87
2019-05-30T16:22:43.597Z,40.66
2019-05-30T16:25:19.702Z,39.50
2019-05-30T16:27:49.814Z,41.73
2019-05-30T16:30:23.804Z,41.07
2019-05-30T16:32:53.238Z,41.72
2019-05-30T16:35:22.703Z,42.46
2019-05-30T16:37:52.024Z,42.42
2019-05-30T16:40:24.025Z,41.58
2019-05-30T16:42:53.594Z,42.03
2019-05-30T16:45:25.156Z,41.04
2019-05-30T16:47:53.682Z,41.16
2019-05-30T16:50:27.745Z,42.36
2019-05-30T16:52:57.164Z,44.15
2019-05-30T16:55:29.147Z,43.85
2019-05-30T16:57:58.263Z,43.64
2019-05-30T17:00:30.189Z,42.95
2019-05-30T17:02:59.306Z,44.41
2019-05-30T17:05:29.649Z,44.76
2019-05-30T17:07:58.853Z,43.92
2019-05-30T17:10:33.140Z,43.14
2019-05-30T17:13:03.332Z,45.70
2019-05-30T17:15:32.746Z,45.30
2019-05-30T17:18:03.492Z,44.01
2019-05-30T17:20:32.744Z,44.21
2019-05-30T17:23:01.917Z,43.07
2019-05-30T17:25:31.072Z,43.97
2019-05-30T17:28:00.241Z,43.12
2019-05-30T17:30:31.783Z,44.82
2019-05-30T17:33:01.018Z,45.05
2019-05-30T17:35:30.167Z,44.93
2019-05-30T17:38:01.035Z,45.71
2019-05-30T17:40:44.312Z,45.56
2019-05-30T17:43:03.168Z,45.70
2019-05-30T17:45:32.343Z,46.50
2019-05-30T17:48:15.665Z,46.89
2019-05-30T17:50:32.462Z,45.61
2019-05-30T17:53:02.395Z,46.28
2019-05-30T17:55:32.950Z,46.20
2019-05-30T17:58:03.788Z,46.63
2019-05-30T18:00:33.106Z,46.16
2019-05-30T18:03:07.155Z,45.62
2019-05-30T18:05:38.700Z,46.45
2019-05-30T18:08:07.969Z,46.03
2019-05-30T18:10:37.180Z,46.40
2019-05-30T18:13:08.558Z,46.12
2019-05-30T18:15:40.075Z,46.61
2019-05-30T18:18:09.332Z,47.20
2019-05-30T18:20:48.531Z,47.72
2019-05-30T18:23:11.996Z,46.67
2019-05-30T18:25:43.947Z,47.21
2019-05-30T18:28:13.245Z,48.18
2019-05-30T18:30:44.574Z,48.27
2019-05-30T18:33:14.790Z,47.49
2019-05-30T18:35:55.628Z,47.18
2019-05-30T18:38:26.479Z,46.57
2019-05-30T18:41:10.218Z,47.78
2019-05-30T18:43:26.836Z,46.82
2019-05-30T18:45:57.244Z,46.46
2019-05-30T18:48:29.686Z,47.38
2019-05-30T18:50:58.890Z,47.25
2019-05-30T18:53:30.404Z,47.78
2019-05-30T18:56:02.752Z,47.33
2019-05-30T18:58:35.217Z,47.85
2019-05-30T19:01:04.454Z,47.30
2019-05-30T19:03:37.170Z,47.01
2019-05-30T19:06:06.631Z,47.10
2019-05-30T19:08:38.771Z,47.18
2019-05-30T19:11:09.628Z,47.85
2019-05-30T19:13:44.350Z,48.20
2019-05-30T19:16:13.903Z,49.40
2019-05-30T19:18:44.647Z,48.95
2019-05-30T19:21:13.753Z,50.03
2019-05-30T19:23:42.890Z,49.77
2019-05-30T19:26:14.783Z,49.97
2019-05-30T19:28:45.022Z,50.92
2019-05-30T19:31:15.381Z,50.78
2019-05-30T19:33:44.651Z,51.20
2019-05-30T19:36:18.249Z,51.74
2019-05-30T19:38:52.340Z,52.25
2019-05-30T19:41:24.964Z,51.45
2019-05-30T19:43:54.553Z,51.54
2019-05-30T19:46:36.291Z,51.16
2019-05-30T19:49:05.680Z,51.40
2019-05-30T19:51:39.111Z,51.84
2019-05-30T19:54:08.442Z,51.88
2019-05-30T19:56:41.980Z,52.62
2019-05-30T19:59:14.385Z,51.23
2019-05-30T20:01:43.638Z,51.87
2019-05-30T20:04:13.179Z,51.06
2019-05-30T20:06:44.177Z,50.78
2019-05-30T20:09:15.800Z,51.65
2019-05-30T20:12:02.115Z,50.73
2019-05-30T20:14:15.922Z,50.83
2019-05-30T20:16:46.331Z,51.61
2019-05-30T20:19:18.378Z,51.89
2019-05-30T20:21:51.812Z,51.83
2019-05-30T20:24:28.443Z,51.52
2019-05-30T20:27:00.446Z,52.02
2019-05-30T20:29:29.572Z,51.51
2019-05-30T20:32:09.260Z,50.97
2019-05-30T20:34:38.981Z,50.47
2019-05-30T20:37:13.367Z,50.24
2019-05-30T20:39:42.902Z,50.22
2019-05-30T20:42:19.139Z,50.39
2019-05-30T20:44:47.116Z,50.47
2019-05-30T20:47:15.766Z,50.56
2019-05-30T20:49:44.961Z,50.58
2019-05-30T20:52:17.200Z,50.21
2019-05-30T20:54:49.656Z,50.83
2019-05-30T20:57:21.909Z,51.11
2019-05-30T20:59:56.417Z,51.13
2019-05-30T21:02:30.175Z,51.51
2019-05-30T21:05:00.637Z,50.39
2019-05-30T21:07:35.868Z,50.82
2019-05-30T21:10:06.486Z,50.82
2019-05-30T21:12:40.695Z,51.71
2019-05-30T21:15:13.676Z,51.91
2019-05-30T21:17:46.449Z,51.34
2019-05-30T21:20:17.349Z,51.88
2019-05-30T21:22:46.841Z,52.49
2019-05-30T21:25:23.624Z,53.92
2019-05-30T21:27:52.892Z,53.94
2019-05-30T21:30:26.688Z,53.13
2019-05-30T21:32:56.309Z,53.87
2019-05-30T21:35:30.827Z,53.36
2019-05-30T21:38:02.003Z,54.80
2019-05-30T21:40:31.207Z,54.85
2019-05-30T21:43:06.424Z,54.06
2019-05-30T21:45:33.350Z,54.10
2019-05-30T21:48:05.263Z,54.19
2019-05-30T21:50:35.571Z,53.33
2019-05-30T21:53:08.739Z,53.47
2019-05-30T21:55:37.854Z,53.70
2019-05-30T21:58:13.498Z,54.84
2019-05-30T22:01:40.699Z,54.99
2019-05-30T22:04:11.827Z,55.70
2019-05-30T22:06:42.807Z,54.76
2019-05-30T22:09:12.206Z,54.13
2019-05-30T22:11:43.660Z,53.71
2019-05-30T22:14:13.002Z,53.32
2019-05-30T22:16:44.152Z,54.49
2019-05-30T22:19:13.301Z,54.57
2019-05-30T22:21:46.195Z,53.96
2019-05-30T22:24:16.119Z,54.04
2019-05-30T22:26:48.228Z,53.54
2019-05-30T22:29:16.199Z,54.66
2019-05-30T22:31:46.500Z,54.37
2019-05-30T22:34:17.275Z,55.13
2019-05-30T22:36:48.947Z,55.20
2019-05-30T22:39:18.959Z,53.88
2019-05-30T22:41:50.705Z,54.57
2019-05-30T22:44:19.876Z,54.25
2019-05-30T22:46:50.240Z,55.12
2019-05-30T22:49:19.437Z,55.39
2019-05-30T22:51:51.520Z,55.85
2019-05-30T22:54:20.752Z,55.75
2019-05-30T22:56:49.867Z,55.75
2019-05-30T22:59:20.006Z,57.27
2019-05-30T23:01:49.426Z,57.12
2019-05-30T23:04:20.251Z,57.75
2019-05-30T23:06:52.439Z,58.77
2019-05-30T23:09:25.942Z,59.46
2019-05-30T23:11:58.123Z,60.32
2019-05-30T23:14:30.059Z,60.27
2019-05-30T23:17:08.473Z,60.14
2019-05-30T23:19:38.148Z,58.45
2019-05-30T23:22:13.099Z,57.35
2019-05-30T23:24:42.336Z,57.37
2019-05-30T23:27:12.662Z,57.03
2019-05-30T23:29:42.188Z,58.86
2019-05-30T23:32:13.789Z,57.78
2019-05-30T23:34:42.942Z,57.85
2019-05-30T23:37:14.073Z,56.66
2019-05-30T23:39:46.131Z,57.62
2019-05-30T23:42:17.341Z,56.53
2019-05-30T23:44:46.461Z,57.10
2019-05-30T23:47:17.521Z,56.28
2019-05-30T23:49:47.065Z,56.42
2019-05-30T23:52:16.447Z,56.80
2019-05-30T23:54:45.558Z,56.80
2019-05-30T23:57:16.049Z,56.42
2019-05-30T23:59:45.352Z,57.53
